Time;durP1;ratioP1;P1;durP2;ratioP2;P2;SDS_P1;SDS_P2;PMS_P1;PMS_P2;Temp;Humidity;BMP_temperature;BMP_pressure;BME280_temperature;BME280_humidity;BME280_pressure;Samples;Min_cycle;Max_cycle;Signal;HPM_P1;HPM_P2
2023/12/18 00:01:06;;;;;;;;;;;;;;;3.39;100.00;103251.22;5029704;28;19921;-75
2023/12/18 00:03:31;;;;;;;;;;;;;;;3.46;100.00;103257.63;5028352;28;19920;-76
2023/12/18 00:05:57;;;;;;;;;;;;;;;3.53;100.00;103264.06;5050894;28;19921;-76
2023/12/18 00:08:22;;;;;;;;;;;;;;;3.56;100.00;103253.88;5038819;28;19921;-76
2023/12/18 00:10:47;;;;;;;;;;;;;;;3.61;100.00;103257.63;5027151;28;19932;-75
2023/12/18 00:13:13;;;;;;;;;;;;;;;3.64;100.00;103255.19;5024202;28;19921;-75
2023/12/18 00:15:38;;;;;;;;;;;;;;;3.70;100.00;103255.53;5026988;28;20378;-75
2023/12/18 00:18:06;;;;;;;;;;;;;;;3.71;100.00;103254.72;5028739;28;19970;-75
2023/12/18 00:20:31;;;;;;;;;;;;;;;3.76;100.00;103250.66;5044027;28;19917;-75
2023/12/18 00:22:57;;;;;;;;;;;;;;;3.78;100.00;103241.28;5024968;28;19982;-75
2023/12/18 00:25:25;;;;;;;;;;;;;;;3.84;100.00;103239.84;5034679;28;19928;-75
2023/12/18 00:27:50;;;;;;;;;;;;;;;3.88;100.00;103239.19;5049828;28;20282;-75
2023/12/18 00:30:16;;;;;;;;;;;;;;;3.91;100.00;103247.16;5033473;28;19921;-75
2023/12/18 00:32:41;;;;;;;;;;;;;;;3.90;100.00;103235.00;5047227;28;19929;-76
2023/12/18 00:35:07;;;;;;;;;;;;;;;3.91;100.00;103239.38;5049240;28;20276;-76
2023/12/18 00:37:34;;;;;;;;;;;;;;;3.92;100.00;103239.47;5046858;28;19920;-75
2023/12/18 00:40:00;;;;;;;;;;;;;;;3.96;100.00;103233.59;5047642;28;19924;-76
2023/12/18 00:42:25;;;;;;;;;;;;;;;3.96;100.00;103230.13;5017810;28;19932;-76
2023/12/18 00:44:50;;;;;;;;;;;;;;;3.98;100.00;103234.59;5015598;28;19927;-76
2023/12/18 00:47:16;;;;;;;;;;;;;;;4.01;100.00;103226.09;5029738;28;19921;-75
2023/12/18 00:49:41;;;;;;;;;;;;;;;4.05;100.00;103238.41;5030660;28;19921;-75
2023/12/18 00:52:06;;;;;;;;;;;;;;;4.05;100.00;103225.44;5015865;28;19964;-75
2023/12/18 00:54:31;;;;;;;;;;;;;;;4.06;100.00;103222.00;5050143;28;20357;-76
2023/12/18 00:56:57;;;;;;;;;;;;;;;4.07;100.00;103218.63;5029831;28;20078;-76
2023/12/18 00:59:22;;;;;;;;;;;;;;;4.07;100.00;103223.81;5037326;28;19963;-76
2023/12/18 01:01:47;;;;;;;;;;;;;;;4.09;100.00;103224.78;5016432;28;20073;-76
2023/12/18 01:04:15;;;;;;;;;;;;;;;4.09;100.00;103216.09;5038809;28;19924;-76
2023/12/18 01:06:40;;;;;;;;;;;;;;;4.09;100.00;103209.19;5050043;28;19978;-76
2023/12/18 01:09:06;;;;;;;;;;;;;;;4.10;100.00;103218.78;5025674;28;19921;-75
2023/12/18 01:11:31;;;;;;;;;;;;;;;4.11;100.00;103220.56;5047589;28;19924;-76
2023/12/18 01:13:56;;;;;;;;;;;;;;;4.14;100.00;103222.44;5026199;28;20056;-76
2023/12/18 01:16:22;;;;;;;;;;;;;;;4.12;100.00;103221.44;5015627;28;19921;-75
2023/12/18 01:18:47;;;;;;;;;;;;;;;4.17;100.00;103220.00;5046663;28;19950;-75
2023/12/18 01:21:13;;;;;;;;;;;;;;;4.16;100.00;103206.13;5047284;28;19917;-76
2023/12/18 01:23:38;;;;;;;;;;;;;;;4.22;100.00;103202.97;5030885;28;19917;-76
2023/12/18 01:26:04;;;;;;;;;;;;;;;4.20;100.00;103204.59;5016504;28;19925;-75
2023/12/18 01:28:29;;;;;;;;;;;;;;;4.19;100.00;103204.50;5050132;28;19955;-76
2023/12/18 01:30:54;;;;;;;;;;;;;;;4.18;100.00;103201.03;5032247;28;19925;-76
2023/12/18 01:33:20;;;;;;;;;;;;;;;4.20;100.00;103203.72;5042503;28;19925;-76
2023/12/18 01:35:45;;;;;;;;;;;;;;;4.19;100.00;103202.78;5029110;28;20457;-76
2023/12/18 01:38:10;;;;;;;;;;;;;;;4.24;100.00;103216.00;5024601;28;19925;-76
2023/12/18 01:40:36;;;;;;;;;;;;;;;4.23;100.00;103209.06;5019480;28;19947;-76
2023/12/18 01:43:01;;;;;;;;;;;;;;;4.24;100.00;103211.72;5028952;28;19921;-76
2023/12/18 01:45:26;;;;;;;;;;;;;;;4.27;100.00;103216.19;5021426;28;19955;-76
2023/12/18 01:47:53;;;;;;;;;;;;;;;4.28;100.00;103218.88;5046438;28;20407;-76
2023/12/18 01:50:19;;;;;;;;;;;;;;;4.30;100.00;103216.34;5018178;28;19928;-76
2023/12/18 01:52:45;;;;;;;;;;;;;;;4.30;100.00;103212.03;5030896;28;20024;-76
2023/12/18 01:55:12;;;;;;;;;;;;;;;4.34;100.00;103213.09;5029365;28;20023;-76
2023/12/18 01:57:38;;;;;;;;;;;;;;;4.36;100.00;103220.97;5038142;28;20004;-76
2023/12/18 02:00:03;;;;;;;;;;;;;;;4.36;100.00;103210.59;5047140;28;20010;-76
2023/12/18 02:02:29;;;;;;;;;;;;;;;4.39;100.00;103211.63;5026035;28;20011;-75
2023/12/18 02:04:55;;;;;;;;;;;;;;;4.39;100.00;103203.84;5033817;28;19963;-76
2023/12/18 02:07:20;;;;;;;;;;;;;;;4.40;100.00;103197.84;5019322;28;19929;-76
2023/12/18 02:09:46;;;;;;;;;;;;;;;4.42;100.00;103190.13;5031829;28;19952;-75
2023/12/18 02:12:11;;;;;;;;;;;;;;;4.41;100.00;103188.34;5029167;28;19929;-75
2023/12/18 02:14:37;;;;;;;;;;;;;;;4.41;100.00;103194.44;5048127;28;20019;-76
2023/12/18 02:17:02;;;;;;;;;;;;;;;4.42;100.00;103192.72;5035823;28;19940;-76
2023/12/18 02:19:29;;;;;;;;;;;;;;;4.42;100.00;103197.91;5043017;28;19944;-76
2023/12/18 02:21:55;;;;;;;;;;;;;;;4.43;100.00;103184.13;5050328;28;19917;-76
2023/12/18 02:24:21;;;;;;;;;;;;;;;4.42;100.00;103185.81;5033463;28;19914;-75
2023/12/18 02:26:47;;;;;;;;;;;;;;;4.45;100.00;103186.00;5040933;28;20074;-75
2023/12/18 02:29:12;;;;;;;;;;;;;;;4.46;100.00;103185.16;5051701;28;19928;-76
2023/12/18 02:31:38;;;;;;;;;;;;;;;4.46;100.00;103181.69;5050903;28;19923;-76
2023/12/18 02:34:03;;;;;;;;;;;;;;;4.44;100.00;103186.81;5044446;28;19944;-75
2023/12/18 02:36:29;;;;;;;;;;;;;;;4.44;100.00;103184.22;5045312;28;19921;-75
2023/12/18 02:38:54;;;;;;;;;;;;;;;4.48;100.00;103180.03;5050028;28;20016;-75
2023/12/18 02:41:19;;;;;;;;;;;;;;;4.47;100.00;103179.16;5022389;28;19935;-75
2023/12/18 02:43:47;;;;;;;;;;;;;;;4.46;100.00;103174.78;5033701;28;20379;-75
2023/12/18 02:46:12;;;;;;;;;;;;;;;4.45;100.00;103173.03;5023607;28;19956;-76
2023/12/18 02:48:40;;;;;;;;;;;;;;;4.45;100.00;103174.69;5018427;28;20007;-76
2023/12/18 02:51:05;;;;;;;;;;;;;;;4.46;100.00;103163.50;5034401;28;19921;-75
2023/12/18 02:53:31;;;;;;;;;;;;;;;4.45;100.00;103154.84;5016107;28;19940;-76
2023/12/18 02:55:56;;;;;;;;;;;;;;;4.46;100.00;103156.59;5044877;28;19924;-76
2023/12/18 02:58:22;;;;;;;;;;;;;;;4.48;100.00;103152.41;5021085;28;19928;-75
2023/12/18 03:00:48;;;;;;;;;;;;;;;4.48;100.00;103154.09;5041441;28;19917;-75
2023/12/18 03:03:13;;;;;;;;;;;;;;;4.48;100.00;103161.88;5050920;28;19943;-76
2023/12/18 03:05:39;;;;;;;;;;;;;;;4.51;100.00;103149.94;5035654;28;20086;-75
2023/12/18 03:08:05;;;;;;;;;;;;;;;4.52;100.00;103153.44;5051331;28;19920;-76
2023/12/18 03:10:30;;;;;;;;;;;;;;;4.53;100.00;103151.75;5026796;28;19925;-76
2023/12/18 03:12:56;;;;;;;;;;;;;;;4.49;100.00;103151.56;5046092;28;19991;-76
2023/12/18 03:15:21;;;;;;;;;;;;;;;4.51;100.00;103156.81;5018377;28;20353;-76
2023/12/18 03:17:46;;;;;;;;;;;;;;;4.51;100.00;103155.16;5035205;28;20424;-76
2023/12/18 03:20:12;;;;;;;;;;;;;;;4.51;100.00;103149.03;5031513;28;19927;-76
2023/12/18 03:22:37;;;;;;;;;;;;;;;4.51;100.00;103147.34;5019059;28;20303;-76
2023/12/18 03:25:03;;;;;;;;;;;;;;;4.59;100.00;103147.72;5038773;28;20362;-76
2023/12/18 03:27:29;;;;;;;;;;;;;;;4.55;100.00;103155.28;4997355;28;20020;-76
2023/12/18 03:29:54;;;;;;;;;;;;;;;4.56;100.00;103151.91;4994908;28;20027;-74
2023/12/18 03:32:19;;;;;;;;;;;;;;;4.54;100.00;103159.59;5013537;28;19956;-74
2023/12/18 03:34:45;;;;;;;;;;;;;;;4.54;100.00;103148.31;4992467;28;20033;-74
2023/12/18 03:37:10;;;;;;;;;;;;;;;4.54;100.00;103153.50;4995767;28;19964;-76
2023/12/18 03:39:35;;;;;;;;;;;;;;;4.54;100.00;103149.22;4993607;28;19918;-74
2023/12/18 03:42:01;;;;;;;;;;;;;;;4.52;100.00;103148.22;5008085;28;19991;-74
2023/12/18 03:44:26;;;;;;;;;;;;;;;4.53;100.00;103143.94;4999729;28;20038;-73
2023/12/18 03:46:51;;;;;;;;;;;;;;;4.52;100.00;103145.63;4999205;28;19921;-73
2023/12/18 03:49:17;;;;;;;;;;;;;;;4.51;100.00;103155.16;5005324;28;20008;-75
2023/12/18 03:51:42;;;;;;;;;;;;;;;4.50;100.00;103145.56;5004190;28;19947;-75
2023/12/18 03:54:07;;;;;;;;;;;;;;;4.53;100.00;103154.34;4990559;28;19929;-74
2023/12/18 03:56:32;;;;;;;;;;;;;;;4.55;100.00;103155.28;4994332;28;19929;-74
2023/12/18 03:58:58;;;;;;;;;;;;;;;4.54;100.00;103162.22;4982590;28;19918;-75
2023/12/18 04:01:24;;;;;;;;;;;;;;;4.56;100.00;103167.47;4993877;28;19928;-74
2023/12/18 04:03:49;;;;;;;;;;;;;;;4.53;100.00;103157.81;4989666;28;20315;-74
2023/12/18 04:06:14;;;;;;;;;;;;;;;4.56;100.00;103157.09;4991273;28;20438;-73
2023/12/18 04:08:41;;;;;;;;;;;;;;;4.54;100.00;103158.69;5012445;28;19932;-75
2023/12/18 04:11:16;;;;;;;;;;;;;;;4.55;100.00;103156.19;5005662;28;19963;-73
2023/12/18 04:13:42;;;;;;;;;;;;;;;4.55;100.00;103155.28;5014242;28;19917;-73
2023/12/18 04:16:07;;;;;;;;;;;;;;;4.53;100.00;103150.03;5012265;28;19920;-74
2023/12/18 04:18:35;;;;;;;;;;;;;;;4.55;100.00;103150.09;5014812;28;19928;-74
2023/12/18 04:21:00;;;;;;;;;;;;;;;4.61;100.00;103145.19;4995233;28;20415;-74
2023/12/18 04:23:25;;;;;;;;;;;;;;;4.54;100.00;103143.13;4995397;28;19925;-75
2023/12/18 04:25:51;;;;;;;;;;;;;;;4.57;100.00;103151.06;5021057;28;19921;-73
2023/12/18 04:28:16;;;;;;;;;;;;;;;4.58;100.00;103142.47;5044203;28;19920;-73
2023/12/18 04:30:41;;;;;;;;;;;;;;;4.55;100.00;103144.91;5024109;28;19966;-73
2023/12/18 04:33:07;;;;;;;;;;;;;;;4.55;100.00;103134.53;5029379;28;19979;-73
2023/12/18 04:35:32;;;;;;;;;;;;;;;4.56;100.00;103131.13;5021809;28;20043;-73
2023/12/18 04:37:57;;;;;;;;;;;;;;;4.61;100.00;103132.22;5027117;28;19928;-73
2023/12/18 04:40:23;;;;;;;;;;;;;;;4.61;100.00;103129.63;5023677;28;20267;-73
2023/12/18 04:42:48;;;;;;;;;;;;;;;4.58;100.00;103139.88;5024596;28;20361;-72
2023/12/18 04:45:13;;;;;;;;;;;;;;;4.57;100.00;103138.97;5029780;28;20275;-74
2023/12/18 04:47:39;;;;;;;;;;;;;;;4.61;100.00;103142.59;5049878;28;20412;-73
2023/12/18 04:50:04;;;;;;;;;;;;;;;4.61;100.00;103142.59;5031931;28;19921;-74
2023/12/18 04:52:29;;;;;;;;;;;;;;;4.59;100.00;103137.34;5025157;28;20659;-73
2023/12/18 04:54:55;;;;;;;;;;;;;;;4.58;100.00;103130.34;5026479;28;20155;-73
2023/12/18 04:57:20;;;;;;;;;;;;;;;4.55;100.00;103132.81;5032331;28;19924;-74
2023/12/18 04:59:46;;;;;;;;;;;;;;;4.57;100.00;103130.28;5015088;28;19964;-74
2023/12/18 05:02:11;;;;;;;;;;;;;;;4.55;100.00;103129.31;5042371;28;20275;-73
2023/12/18 05:04:36;;;;;;;;;;;;;;;4.53;100.00;103131.84;5027955;28;20494;-74
2023/12/18 05:07:02;;;;;;;;;;;;;;;4.51;100.00;103136.06;5025309;28;20011;-73
2023/12/18 05:09:27;;;;;;;;;;;;;;;4.52;100.00;103130.06;5047060;28;19916;-74
2023/12/18 05:11:52;;;;;;;;;;;;;;;4.55;100.00;103131.94;5021618;28;19975;-73
2023/12/18 05:14:18;;;;;;;;;;;;;;;4.51;100.00;103131.78;5014467;28;19932;-74
2023/12/18 05:16:43;;;;;;;;;;;;;;;4.53;100.00;103128.38;5025974;28;20390;-73
2023/12/18 05:19:09;;;;;;;;;;;;;;;4.50;100.00;103126.50;5045025;28;20643;-73
2023/12/18 05:21:34;;;;;;;;;;;;;;;4.53;100.00;103120.59;5031103;28;20279;-75
2023/12/18 05:23:59;;;;;;;;;;;;;;;4.56;100.00;103123.31;5032798;28;19929;-75
2023/12/18 05:26:25;;;;;;;;;;;;;;;4.53;100.00;103125.78;5049444;28;19928;-74
2023/12/18 05:28:50;;;;;;;;;;;;;;;4.49;100.00;103120.41;5029143;28;19925;-74
2023/12/18 05:31:18;;;;;;;;;;;;;;;4.53;100.00;103126.66;5030544;28;19952;-73
2023/12/18 05:33:44;;;;;;;;;;;;;;;4.51;100.00;103124.00;5046200;28;20023;-74
2023/12/18 05:36:09;;;;;;;;;;;;;;;4.49;100.00;103130.78;5021282;28;19921;-73
2023/12/18 05:38:37;;;;;;;;;;;;;;;4.51;100.00;103133.47;5025676;28;19925;-75
2023/12/18 05:41:02;;;;;;;;;;;;;;;4.53;100.00;103134.44;5048158;28;19944;-73
2023/12/18 05:43:27;;;;;;;;;;;;;;;4.58;100.00;103137.25;5049022;28;20343;-74
2023/12/18 05:45:53;;;;;;;;;;;;;;;4.55;100.00;103129.31;5026772;28;20003;-75
2023/12/18 05:48:18;;;;;;;;;;;;;;;4.52;100.00;103137.84;5050464;28;19981;-73
2023/12/18 05:50:43;;;;;;;;;;;;;;;4.62;100.00;103136.59;5052987;28;19928;-73
2023/12/18 05:53:10;;;;;;;;;;;;;;;4.54;100.00;103137.94;5030182;28;19921;-76
2023/12/18 05:55:35;;;;;;;;;;;;;;;4.56;100.00;103141.50;5031867;28;19935;-75
2023/12/18 05:58:00;;;;;;;;;;;;;;;4.55;100.00;103137.13;5028441;28;19921;-75
2023/12/18 06:00:26;;;;;;;;;;;;;;;4.55;100.00;103134.53;5031770;28;19936;-75
2023/12/18 06:02:51;;;;;;;;;;;;;;;4.56;100.00;103134.59;5031599;28;19975;-76
2023/12/18 06:05:16;;;;;;;;;;;;;;;4.63;100.00;103134.09;5047528;28;19924;-76
2023/12/18 06:07:42;;;;;;;;;;;;;;;4.58;100.00;103135.56;5031223;28;20019;-74
2023/12/18 06:10:08;;;;;;;;;;;;;;;4.56;100.00;103128.53;5025921;28;19921;-76
2023/12/18 06:12:34;;;;;;;;;;;;;;;4.60;100.00;103122.66;5020683;28;19971;-76
2023/12/18 06:14:59;;;;;;;;;;;;;;;4.60;100.00;103123.56;5028054;28;19928;-76
2023/12/18 06:17:24;;;;;;;;;;;;;;;4.56;100.00;103129.41;5033233;28;19927;-74
2023/12/18 06:19:50;;;;;;;;;;;;;;;4.57;100.00;103126.00;5035012;28;19936;-73
2023/12/18 06:22:15;;;;;;;;;;;;;;;4.58;100.00;103125.16;5029703;28;19925;-74
2023/12/18 06:24:40;;;;;;;;;;;;;;;4.58;100.00;103124.28;5034897;28;19921;-74
2023/12/18 06:27:06;;;;;;;;;;;;;;;4.60;100.00;103123.56;5029930;28;19925;-73
2023/12/18 06:29:31;;;;;;;;;;;;;;;4.65;100.00;103127.25;5048851;28;20471;-73
2023/12/18 06:31:57;;;;;;;;;;;;;;;4.61;100.00;103134.81;5032085;28;19928;-73
2023/12/18 06:34:22;;;;;;;;;;;;;;;4.64;100.00;103129.78;5046862;28;20003;-73
2023/12/18 06:36:48;;;;;;;;;;;;;;;4.63;100.00;103128.88;5035186;28;20446;-74
2023/12/18 06:39:13;;;;;;;;;;;;;;;4.62;100.00;103126.22;5051414;28;19979;-74
2023/12/18 06:41:41;;;;;;;;;;;;;;;4.66;100.00;103138.53;5030329;28;19925;-73
2023/12/18 06:44:06;;;;;;;;;;;;;;;4.65;100.00;103129.84;5051750;28;19920;-75
2023/12/18 06:46:33;;;;;;;;;;;;;;;4.68;100.00;103123.91;5030987;28;19975;-73
2023/12/18 06:48:59;;;;;;;;;;;;;;;4.74;100.00;103124.25;5025095;28;20524;-73
2023/12/18 06:51:24;;;;;;;;;;;;;;;4.83;100.00;103129.88;5051865;28;19998;-76
2023/12/18 06:53:50;;;;;;;;;;;;;;;4.73;100.00;103127.66;5022143;28;19974;-76
2023/12/18 06:56:15;;;;;;;;;;;;;;;4.71;100.00;103125.78;5033314;28;19921;-75
2023/12/18 06:58:41;;;;;;;;;;;;;;;4.77;100.00;103129.56;5028133;28;20387;-75
2023/12/18 07:01:06;;;;;;;;;;;;;;;5.02;100.00;103133.34;5030794;28;19928;-74
2023/12/18 07:03:31;;;;;;;;;;;;;;;4.80;100.00;103131.44;5036120;28;19924;-73
2023/12/18 07:05:59;;;;;;;;;;;;;;;4.74;100.00;103123.31;5033153;28;19925;-75
2023/12/18 07:08:24;;;;;;;;;;;;;;;4.73;100.00;103126.75;5032693;28;19995;-76
2023/12/18 07:10:50;;;;;;;;;;;;;;;4.77;100.00;103136.47;5029986;28;19939;-76
2023/12/18 07:13:15;;;;;;;;;;;;;;;4.72;100.00;103135.38;5051742;28;19916;-75
2023/12/18 07:15:40;;;;;;;;;;;;;;;4.71;100.00;103139.66;5030453;28;19936;-75
2023/12/18 07:18:09;;;;;;;;;;;;;;;4.75;100.00;103149.38;5032079;28;20373;-76
2023/12/18 07:20:34;;;;;;;;;;;;;;;4.68;100.00;103143.00;5052216;28;19924;-76
2023/12/18 07:22:59;;;;;;;;;;;;;;;4.67;100.00;103142.94;5036022;28;19925;-75
2023/12/18 07:25:25;;;;;;;;;;;;;;;4.77;100.00;103141.66;5026725;28;19933;-73
2023/12/18 07:27:51;;;;;;;;;;;;;;;4.70;100.00;103150.88;5033878;28;19928;-74
2023/12/18 07:30:16;;;;;;;;;;;;;;;4.72;100.00;103145.75;5028251;28;19928;-75
2023/12/18 07:32:42;;;;;;;;;;;;;;;4.70;100.00;103137.88;5015969;28;20363;-76
2023/12/18 07:35:07;;;;;;;;;;;;;;;4.68;100.00;103135.22;5025878;28;19925;-75
2023/12/18 07:37:32;;;;;;;;;;;;;;;4.70;100.00;103143.09;5046944;28;19924;-75
2023/12/18 07:39:59;;;;;;;;;;;;;;;4.67;100.00;103141.22;5048491;28;19917;-75
2023/12/18 07:42:27;;;;;;;;;;;;;;;4.68;100.00;103137.81;5034755;28;19990;-73
2023/12/18 07:44:53;;;;;;;;;;;;;;;4.65;100.00;103140.22;5050977;28;20015;-73
2023/12/18 07:47:18;;;;;;;;;;;;;;;4.64;100.00;103141.06;5051545;28;19959;-76
2023/12/18 07:49:44;;;;;;;;;;;;;;;4.64;100.00;103141.06;5051570;28;19965;-75
2023/12/18 07:52:09;;;;;;;;;;;;;;;4.65;100.00;103137.63;5034752;28;19940;-75
2023/12/18 07:54:35;;;;;;;;;;;;;;;4.67;100.00;103137.75;5051563;28;19927;-76
2023/12/18 07:57:02;;;;;;;;;;;;;;;4.65;100.00;103134.16;5034468;28;19917;-75
2023/12/18 07:59:29;;;;;;;;;;;;;;;4.65;100.00;103128.97;5034445;28;19924;-75
2023/12/18 08:01:55;;;;;;;;;;;;;;;4.69;100.00;103123.09;5050854;28;20363;-76
2023/12/18 08:04:21;;;;;;;;;;;;;;;4.64;100.00;103125.50;5034621;28;19925;-76
2023/12/18 08:06:47;;;;;;;;;;;;;;;4.70;100.00;103124.91;5051339;28;19947;-74
2023/12/18 08:09:13;;;;;;;;;;;;;;;4.68;100.00;103132.63;5034522;28;19974;-74
2023/12/18 08:11:39;;;;;;;;;;;;;;;4.70;100.00;103127.50;5050181;28;19917;-74
2023/12/18 08:14:05;;;;;;;;;;;;;;;4.69;100.00;103121.38;5033844;28;20022;-74
2023/12/18 08:16:30;;;;;;;;;;;;;;;4.73;100.00;103121.56;5034509;28;19917;-73
2023/12/18 08:18:57;;;;;;;;;;;;;;;4.82;100.00;103125.47;5034448;28;20320;-73
2023/12/18 08:21:24;;;;;;;;;;;;;;;4.79;100.00;103120.13;5034657;28;19921;-73
2023/12/18 08:23:49;;;;;;;;;;;;;;;4.76;100.00;103114.81;5050207;28;20004;-74
2023/12/18 08:26:16;;;;;;;;;;;;;;;4.83;100.00;103127.28;5050573;28;20019;-74
2023/12/18 08:28:42;;;;;;;;;;;;;;;4.89;100.00;103120.59;5050883;28;19917;-76
2023/12/18 08:31:07;;;;;;;;;;;;;;;4.88;100.00;103111.03;5051594;28;20004;-76
2023/12/18 08:33:33;;;;;;;;;;;;;;;5.02;100.00;103118.66;5029632;28;19964;-76
2023/12/18 08:35:58;;;;;;;;;;;;;;;5.01;100.00;103118.56;5014385;28;19926;-73
2023/12/18 08:38:23;;;;;;;;;;;;;;;5.02;100.00;103109.97;5030293;28;19979;-73
2023/12/18 08:40:49;;;;;;;;;;;;;;;5.08;100.00;103114.56;5026255;28;19917;-76
2023/12/18 08:43:14;;;;;;;;;;;;;;;5.17;100.00;103112.41;5033663;28;19925;-76
2023/12/18 08:45:39;;;;;;;;;;;;;;;5.26;100.00;103112.84;5050074;28;19921;-76
2023/12/18 08:48:05;;;;;;;;;;;;;;;5.20;100.00;103108.25;5034008;28;20370;-74
2023/12/18 08:50:30;;;;;;;;;;;;;;;5.30;100.00;103108.66;5034210;28;19923;-74
2023/12/18 08:52:56;;;;;;;;;;;;;;;5.28;100.00;103103.38;5049620;28;19912;-73
2023/12/18 08:55:21;;;;;;;;;;;;;;;5.39;100.00;103106.50;5050752;28;19921;-75
2023/12/18 08:57:47;;;;;;;;;;;;;;;5.39;100.00;103101.31;5050292;28;19916;-73
2023/12/18 09:00:13;;;;;;;;;;;;;;;5.31;100.00;103094.84;5032081;28;19917;-74
2023/12/18 09:02:38;;;;;;;;;;;;;;;5.25;100.00;103102.38;5050246;28;20305;-75
2023/12/18 09:05:04;;;;;;;;;;;;;;;5.24;100.00;103110.97;5033891;28;19963;-75
2023/12/18 09:07:29;;;;;;;;;;;;;;;5.26;100.00;103101.53;5033513;28;19925;-77
2023/12/18 09:09:54;;;;;;;;;;;;;;;5.27;100.00;103108.53;5050328;28;19916;-76
2023/12/18 09:12:21;;;;;;;;;;;;;;;5.24;100.00;103100.59;5033200;28;19927;-76
2023/12/18 09:14:46;;;;;;;;;;;;;;;5.20;100.00;103102.13;5049074;28;19921;-75
2023/12/18 09:17:11;;;;;;;;;;;;;;;5.20;100.00;103096.94;5015933;28;19918;-75
2023/12/18 09:19:37;;;;;;;;;;;;;;;5.28;100.00;103095.59;5030468;28;20004;-76
2023/12/18 09:22:02;;;;;;;;;;;;;;;5.29;100.00;103099.09;5031743;28;19914;-76
2023/12/18 09:24:28;;;;;;;;;;;;;;;5.34;100.00;103105.38;5018921;28;19917;-76
2023/12/18 09:26:54;;;;;;;;;;;;;;;5.40;100.00;103103.06;5037361;28;19932;-76
2023/12/18 09:29:19;;;;;;;;;;;;;;;5.45;100.00;103098.97;5053511;28;19924;-76
2023/12/18 09:31:45;;;;;;;;;;;;;;;5.48;100.00;103096.50;5037609;28;19920;-76
2023/12/18 09:34:10;;;;;;;;;;;;;;;5.53;100.00;103101.91;5036294;28;20294;-75
2023/12/18 09:36:36;;;;;;;;;;;;;;;5.52;100.00;103103.63;5054256;28;20287;-76
2023/12/18 09:39:03;;;;;;;;;;;;;;;5.51;100.00;103106.16;5033432;28;20402;-74
2023/12/18 09:41:28;;;;;;;;;;;;;;;5.52;100.00;103114.03;5017372;28;20018;-74
2023/12/18 09:43:54;;;;;;;;;;;;;;;5.53;100.00;103118.41;5046454;28;19963;-74
2023/12/18 09:46:22;;;;;;;;;;;;;;;5.50;100.00;103118.28;5054713;28;20030;-75
2023/12/18 09:48:47;;;;;;;;;;;;;;;5.51;100.00;103099.25;5053555;28;19916;-73
2023/12/18 09:51:15;;;;;;;;;;;;;;;5.49;100.00;103107.81;5037139;28;19917;-74
2023/12/18 09:53:42;;;;;;;;;;;;;;;5.54;100.00;103103.69;5053354;28;19912;-74
2023/12/18 09:56:08;;;;;;;;;;;;;;;5.54;100.00;103114.97;5036880;28;19925;-73
2023/12/18 09:58:33;;;;;;;;;;;;;;;5.53;100.00;103109.72;5053769;28;19970;-74
2023/12/18 10:00:59;;;;;;;;;;;;;;;5.54;100.00;103107.19;5034052;28;19928;-75
2023/12/18 10:03:24;;;;;;;;;;;;;;;5.58;100.00;103109.94;5053483;28;19971;-76
2023/12/18 10:05:49;;;;;;;;;;;;;;;5.61;100.00;103099.66;5036713;28;19929;-76
2023/12/18 10:08:15;;;;;;;;;;;;;;;5.61;100.00;103097.06;5032755;28;19932;-76
2023/12/18 10:10:43;;;;;;;;;;;;;;;5.66;100.00;103099.06;5049051;28;19917;-76
2023/12/18 10:13:11;;;;;;;;;;;;;;;5.66;100.00;103092.94;5053100;28;20389;-76
2023/12/18 10:15:39;;;;;;;;;;;;;;;5.70;100.00;103094.88;5053057;28;19974;-76
2023/12/18 10:18:05;;;;;;;;;;;;;;;5.68;100.00;103080.91;5036999;28;19924;-76
2023/12/18 10:20:30;;;;;;;;;;;;;;;5.75;100.00;103087.25;5053157;28;19916;-76
2023/12/18 10:22:55;;;;;;;;;;;;;;;5.68;100.00;103083.53;5035403;28;20028;-76
2023/12/18 10:25:22;;;;;;;;;;;;;;;5.65;100.00;103081.66;5033249;28;19925;-76
2023/12/18 10:27:47;;;;;;;;;;;;;;;5.69;100.00;103073.19;5033111;28;19920;-76
2023/12/18 10:30:13;;;;;;;;;;;;;;;5.76;100.00;103076.03;5032586;28;20305;-76
2023/12/18 10:32:40;;;;;;;;;;;;;;;5.75;100.00;103077.75;5034037;28;20290;-75
2023/12/18 10:35:05;;;;;;;;;;;;;;;5.72;100.00;103072.44;5052660;28;20059;-73
2023/12/18 10:37:32;;;;;;;;;;;;;;;5.78;100.00;103075.28;5052708;28;20388;-73
2023/12/18 10:40:00;;;;;;;;;;;;;;;5.65;100.00;103070.38;5049705;28;19966;-75
2023/12/18 10:42:35;;;;;;;;;;;;;;;5.58;100.00;103058.81;5047755;28;19921;-74
2023/12/18 10:45:04;;;;;;;;;;;;;;;5.51;100.00;103059.34;5052361;28;19928;-74
2023/12/18 10:47:30;;;;;;;;;;;;;;;5.50;100.00;103044.56;5052608;28;19970;-74
2023/12/18 10:49:59;;;;;;;;;;;;;;;5.57;100.00;103049.22;5052777;28;20386;-74
2023/12/18 10:52:26;;;;;;;;;;;;;;;5.63;100.00;103046.00;5052159;28;19916;-73
2023/12/18 10:54:53;;;;;;;;;;;;;;;5.57;100.00;103041.41;5052755;28;20439;-75
2023/12/18 10:57:20;;;;;;;;;;;;;;;5.75;100.00;103050.84;5052392;28;20389;-73
2023/12/18 10:59:47;;;;;;;;;;;;;;;5.62;100.00;103034.72;5051984;28;20444;-76
2023/12/18 11:02:13;;;;;;;;;;;;;;;5.74;100.00;103023.94;5050736;28;19960;-76
2023/12/18 11:04:38;;;;;;;;;;;;;;;5.67;100.00;103029.69;5052524;28;20386;-76
2023/12/18 11:07:04;;;;;;;;;;;;;;;5.65;100.00;103031.38;5052375;28;19956;-76
2023/12/18 11:09:29;;;;;;;;;;;;;;;5.64;100.00;103032.19;5052125;28;20015;-76
2023/12/18 11:11:55;;;;;;;;;;;;;;;5.74;100.00;103029.16;5052048;28;19932;-73
2023/12/18 11:14:36;;;;;;;;;;;;;;;5.63;100.00;103027.78;5022266;28;20306;-73
2023/12/18 11:17:12;;;;;;;;;;;;;;;5.66;100.00;103017.50;5045828;28;20019;-75
2023/12/18 11:19:44;;;;;;;;;;;;;;;5.68;100.00;103028.88;5052321;28;20366;-74
2023/12/18 11:22:10;;;;;;;;;;;;;;;5.70;100.00;103028.16;5051982;28;19927;-74
2023/12/18 11:24:36;;;;;;;;;;;;;;;5.69;100.00;103025.47;5032026;28;20366;-75
2023/12/18 11:27:02;;;;;;;;;;;;;;;5.67;100.00;103029.69;5031947;28;19929;-73
2023/12/18 11:29:39;;;;;;;;;;;;;;;5.69;100.00;103025.47;5050167;28;19942;-73
2023/12/18 11:32:05;;;;;;;;;;;;;;;5.69;100.00;103031.56;5051428;28;19917;-74
2023/12/18 11:34:30;;;;;;;;;;;;;;;5.69;100.00;103010.75;5051483;28;19927;-74
2023/12/18 11:36:57;;;;;;;;;;;;;;;5.67;100.00;103017.56;5033863;28;19921;-73
2023/12/18 11:39:27;;;;;;;;;;;;;;;5.61;100.00;103017.31;5050951;28;19917;-74
2023/12/18 11:41:53;;;;;;;;;;;;;;;5.54;100.00;103013.53;5051207;28;19953;-75
2023/12/18 11:44:21;;;;;;;;;;;;;;;5.56;100.00;103021.44;5034588;28;19961;-75
2023/12/18 11:46:49;;;;;;;;;;;;;;;5.53;100.00;103013.47;5029492;28;19928;-73
2023/12/18 11:49:14;;;;;;;;;;;;;;;5.51;100.00;103010.81;5031692;28;19913;-74
2023/12/18 11:51:42;;;;;;;;;;;;;;;5.51;100.00;103007.34;5027532;28;19925;-73
2023/12/18 11:54:07;;;;;;;;;;;;;;;5.53;100.00;102996.19;5046127;28;20354;-74
2023/12/18 11:56:42;;;;;;;;;;;;;;;5.53;100.00;102998.78;5026507;28;20020;-74
2023/12/18 11:59:08;;;;;;;;;;;;;;;5.48;100.00;102989.88;5015957;28;20008;-74
2023/12/18 12:01:34;;;;;;;;;;;;;;;5.49;100.00;102986.47;5020969;28;19921;-73
2023/12/18 12:03:59;;;;;;;;;;;;;;;5.56;100.00;102982.44;5051394;28;19924;-73
2023/12/18 12:06:25;;;;;;;;;;;;;;;5.64;100.00;102974.94;5044970;28;19928;-75
2023/12/18 12:08:50;;;;;;;;;;;;;;;5.69;100.00;102968.25;5046625;28;19920;-74
2023/12/18 12:11:18;;;;;;;;;;;;;;;5.75;100.00;102973.69;5047393;28;19920;-76
2023/12/18 12:13:47;;;;;;;;;;;;;;;5.73;100.00;102975.31;5050123;28;19917;-76
2023/12/18 12:16:15;;;;;;;;;;;;;;;5.77;100.00;102972.03;5042025;28;19921;-76
2023/12/18 12:18:45;;;;;;;;;;;;;;;5.81;100.00;102966.16;5047501;28;19981;-76
2023/12/18 12:21:14;;;;;;;;;;;;;;;5.74;100.00;102971.91;5051325;28;20397;-76
2023/12/18 12:23:39;;;;;;;;;;;;;;;5.71;100.00;102977.00;5050038;28;19973;-76
2023/12/18 12:26:05;;;;;;;;;;;;;;;5.68;100.00;102982.94;5050430;28;19929;-76
2023/12/18 12:28:31;;;;;;;;;;;;;;;5.71;100.00;102988.28;5022861;28;19921;-76